Main page
METAR-TAF:

METAR-TAF

Airports :

Weno, Weno Island, Micronesia

Chuuk International Airport

latitude: 07-28N, longitude: 151-51E, elevation: 3 m

Current weather observation

The report was made 1 hour and 5 minutes ago, at 10:50 UTC
Wind 10 kt from the Northeast
Temperature 27°C
Humidity 94%
Pressure 1007 hPa
Visibility: 24.1 km
Scattered clouds at a height of 1400 ft
Broken clouds at a height of 12000 ft
Overcast at a height of 28000 ft

METAR: PTKK 201050Z 04010KT 15SM SCT014 BKN120 OVC280 27/26 A2975 RMK SLP078 T02720257

Time: 21:55 (11:55 UTC)

Forecast

The report was made 30 minutes ago, at 11:25 UTC
Forecast valid from 20 at 12 UTC to 21 at 12 UTC
Wind 10 kt from the Northeast
Visibility: 10 km
Scattered clouds at a height of 1400 ft
Scattered clouds at a height of 5000 ft
showers in vicinity

TAF: PTKK 201125Z 2012/2112 05010KT P6SM VCSH SCT014 SCT050

Weather observations and forecasts of more than 4000 airports (METAR and TAF reports).

The available stations are represented by yellow and red dots on the map.

Hover mouse over dot to see the name of the station.

Then click to see weather observations and forecasts.

To change the map : click on the green buttons with a black cross to zoom in, on the green button with a dash to zoom out, or on the green arrows for adjacent maps.


METAR-TAF: